Butte Des Morts, Wisconsin
Current Conditions -  °F | °C
As of 6:53 PM on Monday 24 Nov 2014 (Local Time) from KOSH Reporting Station
Light Snow Light Snow  
Wind Chill: 18°   Ceiling: 1200
Heat Index: 28°   Visibility: 1mi
Dew Point: 24°   Wind: 12mph
Humidity: 85%   Direction: 270°W
Pressure: 29.49"   Gusts: 25mph
Location:  44.1°N, 88.65°W
Report Text: KOSH 250053Z 27010G22KT 1SM R36/6000VP6000FT -SN BR VV012 M02/M04 A2949 RMK AO2 SLP997 P0001 T10221044
Loading
Personal Weather Stations






























Interactive Weather Map New forecast layout! Learn more

10-Day Weather Forecast

Advertisements
Track Severe Weather on mobile